This is the latest recevied weather packets stored in our database for station/object IZ2MHJ-3. If no packets are shown the sender has not sent any weather packets the latest 10 day(s).
| Time | Temp. | Humidity | Pressure | Rain* | Wind** | Luminosity | Snow |
|---|---|---|---|---|---|---|---|
| 1777445371 | 20° C | 65% | 1018.5 hPa | - | - | - | - |
| 1777444171 | 18.33° C | 73% | 1018.7 hPa | - | - | - | - |
| 1777442971 | 17.78° C | 77% | 1018.6 hPa | - | - | - | - |
| 1777441770 | 16.67° C | 78% | 1018.6 hPa | - | - | - | - |
| 1777440570 | 16.67° C | 79% | 1018.7 hPa | - | - | - | - |
| 1777439370 | 16.11° C | 81% | 1018.5 hPa | - | - | - | - |
| 1777438169 | 16.11° C | 82% | 1018.5 hPa | - | - | - | - |
| 1777436969 | 16.11° C | 84% | 1018.4 hPa | - | - | - | - |
| 1777435769 | 16.11° C | 84% | 1018.5 hPa | - | - | - | - |
| 1777434568 | 15.56° C | 84% | 1018.5 hPa | - | - | - | - |
| 1777433368 | 15.56° C | 85% | 1018.4 hPa | - | - | - | - |
| 1777432168 | 15.56° C | 82% | 1018.4 hPa | - | - | - | - |
| 1777430968 | 16.11° C | 81% | 1018.1 hPa | - | - | - | - |
| 1777429767 | 16.67° C | 79% | 1018 hPa | - | - | - | - |
| 1777428567 | 16.67° C | 78% | 1017.8 hPa | - | - | - | - |
| 1777427366 | 16.67° C | 78% | 1017.5 hPa | - | - | - | - |
| 1777426166 | 17.22° C | 78% | 1017.4 hPa | - | - | - | - |
| 1777424966 | 17.22° C | 79% | 1017.6 hPa | - | - | - | - |
| 1777423765 | 17.22° C | 80% | 1017.6 hPa | - | - | - | - |
| 1777422565 | 17.22° C | 81% | 1017.7 hPa | - | - | - | - |
| 1777421365 | 17.78° C | 76% | 1017.6 hPa | - | - | - | - |
| 1777420164 | 18.33° C | 72% | 1017.6 hPa | - | - | - | - |
| 1777418964 | 18.33° C | 65% | 1017.5 hPa | - | - | - | - |
| 1777417764 | 18.89° C | 62% | 1017.2 hPa | - | - | - | - |
| 1777416564 | 18.89° C | 63% | 1017.2 hPa | - | - | - | - |
* Rain since midnight (hover to see other rain measurements)
** Current wind speed in m/s (hover to see current wind gust speed)